sensor_id;sensor_type;location;lat;lon;timestamp;P1;durP1;ratioP1;P2;durP2;ratioP2
52776;SDS011;38656;54.260;20.822;2022-11-02T00:00:49;241.38;;;70.25;;
52776;SDS011;38656;54.260;20.822;2022-11-02T00:03:16;227.93;;;62.95;;
52776;SDS011;38656;54.260;20.822;2022-11-02T00:05:42;283.52;;;84.43;;
52776;SDS011;38656;54.260;20.822;2022-11-02T00:08:08;213.88;;;57.25;;
52776;SDS011;38656;54.260;20.822;2022-11-02T00:10:34;248.45;;;67.68;;
52776;SDS011;38656;54.260;20.822;2022-11-02T00:13:00;218.98;;;56.03;;
52776;SDS011;38656;54.260;20.822;2022-11-02T00:15:27;275.80;;;80.38;;
52776;SDS011;38656;54.260;20.822;2022-11-02T00:17:55;256.75;;;59.88;;
52776;SDS011;38656;54.260;20.822;2022-11-02T00:20:21;256.67;;;67.60;;
52776;SDS011;38656;54.260;20.822;2022-11-02T00:22:48;246.07;;;62.55;;
52776;SDS011;38656;54.260;20.822;2022-11-02T00:25:15;240.95;;;61.28;;
52776;SDS011;38656;54.260;20.822;2022-11-02T00:27:43;221.85;;;57.13;;
52776;SDS011;38656;54.260;20.822;2022-11-02T00:30:09;261.67;;;60.03;;
52776;SDS011;38656;54.260;20.822;2022-11-02T00:32:35;220.68;;;55.00;;
52776;SDS011;38656;54.260;20.822;2022-11-02T00:35:01;214.40;;;55.45;;
52776;SDS011;38656;54.260;20.822;2022-11-02T00:37:27;215.10;;;53.97;;
52776;SDS011;38656;54.260;20.822;2022-11-02T00:39:53;243.55;;;56.47;;
52776;SDS011;38656;54.260;20.822;2022-11-02T00:42:19;230.00;;;53.30;;
52776;SDS011;38656;54.260;20.822;2022-11-02T00:44:45;195.48;;;51.92;;
52776;SDS011;38656;54.260;20.822;2022-11-02T00:47:11;226.57;;;52.65;;
52776;SDS011;38656;54.260;20.822;2022-11-02T00:49:37;219.75;;;58.15;;
52776;SDS011;38656;54.260;20.822;2022-11-02T00:52:03;249.20;;;60.28;;
52776;SDS011;38656;54.260;20.822;2022-11-02T00:54:30;239.32;;;54.90;;
52776;SDS011;38656;54.260;20.822;2022-11-02T00:56:56;238.43;;;54.13;;
52776;SDS011;38656;54.260;20.822;2022-11-02T00:59:22;249.15;;;57.47;;
52776;SDS011;38656;54.260;20.822;2022-11-02T01:01:48;236.90;;;56.75;;
52776;SDS011;38656;54.260;20.822;2022-11-02T01:04:17;255.32;;;59.15;;
52776;SDS011;38656;54.260;20.822;2022-11-02T01:06:43;242.82;;;57.80;;
52776;SDS011;38656;54.260;20.822;2022-11-02T01:09:10;265.67;;;58.03;;
52776;SDS011;38656;54.260;20.822;2022-11-02T01:11:36;246.65;;;59.10;;
52776;SDS011;38656;54.260;20.822;2022-11-02T01:14:02;261.80;;;59.50;;
52776;SDS011;38656;54.260;20.822;2022-11-02T01:16:28;281.40;;;65.00;;
52776;SDS011;38656;54.260;20.822;2022-11-02T01:18:56;277.63;;;75.78;;
52776;SDS011;38656;54.260;20.822;2022-11-02T01:21:22;333.60;;;92.65;;
52776;SDS011;38656;54.260;20.822;2022-11-02T01:23:48;278.25;;;69.65;;
52776;SDS011;38656;54.260;20.822;2022-11-02T01:26:14;268.38;;;62.85;;
52776;SDS011;38656;54.260;20.822;2022-11-02T01:28:40;255.60;;;63.67;;
52776;SDS011;38656;54.260;20.822;2022-11-02T01:31:07;252.65;;;64.47;;
52776;SDS011;38656;54.260;20.822;2022-11-02T01:33:33;272.35;;;64.88;;
52776;SDS011;38656;54.260;20.822;2022-11-02T01:36:01;296.75;;;69.28;;
52776;SDS011;38656;54.260;20.822;2022-11-02T01:38:27;275.40;;;67.85;;
52776;SDS011;38656;54.260;20.822;2022-11-02T01:40:53;288.50;;;67.15;;
52776;SDS011;38656;54.260;20.822;2022-11-02T01:43:20;279.95;;;65.22;;
52776;SDS011;38656;54.260;20.822;2022-11-02T01:45:47;271.67;;;65.45;;
52776;SDS011;38656;54.260;20.822;2022-11-02T01:48:15;267.83;;;64.15;;
52776;SDS011;38656;54.260;20.822;2022-11-02T01:50:41;249.55;;;63.00;;
52776;SDS011;38656;54.260;20.822;2022-11-02T01:53:07;234.88;;;60.53;;
52776;SDS011;38656;54.260;20.822;2022-11-02T01:55:33;253.77;;;63.65;;
52776;SDS011;38656;54.260;20.822;2022-11-02T01:58:04;218.40;;;57.92;;
52776;SDS011;38656;54.260;20.822;2022-11-02T02:00:31;233.95;;;60.38;;
52776;SDS011;38656;54.260;20.822;2022-11-02T02:03:05;227.40;;;59.35;;
52776;SDS011;38656;54.260;20.822;2022-11-02T02:08:28;204.43;;;54.40;;
52776;SDS011;38656;54.260;20.822;2022-11-02T02:10:55;205.38;;;57.22;;
52776;SDS011;38656;54.260;20.822;2022-11-02T02:13:21;185.68;;;52.42;;
52776;SDS011;38656;54.260;20.822;2022-11-02T02:18:25;191.43;;;53.22;;
52776;SDS011;38656;54.260;20.822;2022-11-02T02:28:35;158.23;;;46.65;;
52776;SDS011;38656;54.260;20.822;2022-11-02T02:31:13;122.50;;;44.65;;
52776;SDS011;38656;54.260;20.822;2022-11-02T02:33:49;126.72;;;44.40;;
52776;SDS011;38656;54.260;20.822;2022-11-02T02:36:20;131.48;;;43.33;;
52776;SDS011;38656;54.260;20.822;2022-11-02T02:38:51;102.57;;;43.03;;
52776;SDS011;38656;54.260;20.822;2022-11-02T02:41:23;96.63;;;41.03;;
52776;SDS011;38656;54.260;20.822;2022-11-02T02:43:51;101.50;;;43.65;;
52776;SDS011;38656;54.260;20.822;2022-11-02T02:46:19;106.03;;;40.17;;
52776;SDS011;38656;54.260;20.822;2022-11-02T02:48:46;84.20;;;40.22;;
52776;SDS011;38656;54.260;20.822;2022-11-02T02:51:14;78.35;;;36.78;;
52776;SDS011;38656;54.260;20.822;2022-11-02T02:53:43;70.18;;;36.10;;
52776;SDS011;38656;54.260;20.822;2022-11-02T02:56:10;63.35;;;37.08;;
52776;SDS011;38656;54.260;20.822;2022-11-02T02:58:41;64.80;;;36.67;;
52776;SDS011;38656;54.260;20.822;2022-11-02T03:01:10;72.28;;;37.95;;
52776;SDS011;38656;54.260;20.822;2022-11-02T03:03:37;71.72;;;43.80;;
52776;SDS011;38656;54.260;20.822;2022-11-02T03:08:35;65.40;;;35.38;;
52776;SDS011;38656;54.260;20.822;2022-11-02T03:11:12;59.42;;;35.47;;
52776;SDS011;38656;54.260;20.822;2022-11-02T03:16:25;50.50;;;32.40;;
52776;SDS011;38656;54.260;20.822;2022-11-02T03:18:58;71.38;;;35.28;;
52776;SDS011;38656;54.260;20.822;2022-11-02T03:21:41;56.47;;;35.55;;
52776;SDS011;38656;54.260;20.822;2022-11-02T03:29:20;39.38;;;28.20;;
52776;SDS011;38656;54.260;20.822;2022-11-02T03:34:21;36.95;;;25.63;;
52776;SDS011;38656;54.260;20.822;2022-11-02T03:42:26;27.25;;;21.85;;
52776;SDS011;38656;54.260;20.822;2022-11-02T03:44:54;24.77;;;20.85;;
52776;SDS011;38656;54.260;20.822;2022-11-02T03:47:21;30.80;;;22.25;;
52776;SDS011;38656;54.260;20.822;2022-11-02T03:49:48;25.35;;;21.25;;
52776;SDS011;38656;54.260;20.822;2022-11-02T03:52:15;21.05;;;18.38;;
52776;SDS011;38656;54.260;20.822;2022-11-02T03:54:48;20.30;;;18.20;;
52776;SDS011;38656;54.260;20.822;2022-11-02T03:57:27;23.80;;;17.55;;
52776;SDS011;38656;54.260;20.822;2022-11-02T04:02:39;26.92;;;15.95;;
52776;SDS011;38656;54.260;20.822;2022-11-02T04:05:05;20.25;;;16.95;;
52776;SDS011;38656;54.260;20.822;2022-11-02T04:07:32;17.23;;;15.55;;
52776;SDS011;38656;54.260;20.822;2022-11-02T04:10:19;16.65;;;14.85;;
52776;SDS011;38656;54.260;20.822;2022-11-02T04:12:45;20.25;;;16.52;;
52776;SDS011;38656;54.260;20.822;2022-11-02T04:15:30;18.00;;;15.70;;
52776;SDS011;38656;54.260;20.822;2022-11-02T04:17:56;18.60;;;15.82;;
52776;SDS011;38656;54.260;20.822;2022-11-02T04:23:06;19.48;;;17.45;;
52776;SDS011;38656;54.260;20.822;2022-11-02T04:25:54;18.23;;;16.38;;
52776;SDS011;38656;54.260;20.822;2022-11-02T04:28:20;19.17;;;17.08;;
52776;SDS011;38656;54.260;20.822;2022-11-02T04:30:46;20.13;;;17.20;;
52776;SDS011;38656;54.260;20.822;2022-11-02T04:33:12;23.05;;;19.25;;
52776;SDS011;38656;54.260;20.822;2022-11-02T04:36:00;21.73;;;19.40;;
52776;SDS011;38656;54.260;20.822;2022-11-02T04:38:27;35.67;;;22.00;;
52776;SDS011;38656;54.260;20.822;2022-11-02T04:41:09;27.83;;;22.60;;
52776;SDS011;38656;54.260;20.822;2022-11-02T04:43:54;30.70;;;22.48;;
52776;SDS011;38656;54.260;20.822;2022-11-02T04:46:21;26.23;;;21.60;;
52776;SDS011;38656;54.260;20.822;2022-11-02T04:48:47;35.05;;;25.20;;
52776;SDS011;38656;54.260;20.822;2022-11-02T04:51:13;29.65;;;23.88;;
52776;SDS011;38656;54.260;20.822;2022-11-02T04:53:39;31.20;;;26.27;;
52776;SDS011;38656;54.260;20.822;2022-11-02T04:56:05;37.58;;;28.30;;
52776;SDS011;38656;54.260;20.822;2022-11-02T04:58:32;36.78;;;27.98;;
52776;SDS011;38656;54.260;20.822;2022-11-02T05:01:03;34.65;;;27.85;;
52776;SDS011;38656;54.260;20.822;2022-11-02T05:03:29;32.45;;;28.38;;
52776;SDS011;38656;54.260;20.822;2022-11-02T05:05:55;34.80;;;28.38;;
52776;SDS011;38656;54.260;20.822;2022-11-02T05:08:21;36.58;;;27.58;;
52776;SDS011;38656;54.260;20.822;2022-11-02T05:10:47;37.70;;;29.48;;
52776;SDS011;38656;54.260;20.822;2022-11-02T05:13:13;49.55;;;32.78;;
52776;SDS011;38656;54.260;20.822;2022-11-02T05:15:39;39.05;;;30.65;;
52776;SDS011;38656;54.260;20.822;2022-11-02T05:18:05;39.28;;;30.38;;
52776;SDS011;38656;54.260;20.822;2022-11-02T05:20:31;42.78;;;31.05;;
52776;SDS011;38656;54.260;20.822;2022-11-02T05:22:57;48.20;;;31.52;;
52776;SDS011;38656;54.260;20.822;2022-11-02T05:25:23;43.42;;;31.38;;
52776;SDS011;38656;54.260;20.822;2022-11-02T05:27:49;43.22;;;30.15;;
52776;SDS011;38656;54.260;20.822;2022-11-02T05:30:15;43.88;;;29.55;;
52776;SDS011;38656;54.260;20.822;2022-11-02T05:32:41;44.22;;;31.13;;
52776;SDS011;38656;54.260;20.822;2022-11-02T05:35:07;54.85;;;33.13;;
52776;SDS011;38656;54.260;20.822;2022-11-02T05:37:34;50.30;;;33.85;;
52776;SDS011;38656;54.260;20.822;2022-11-02T05:40:00;40.30;;;31.67;;
52776;SDS011;38656;54.260;20.822;2022-11-02T05:42:26;50.78;;;33.10;;
52776;SDS011;38656;54.260;20.822;2022-11-02T05:44:52;43.05;;;30.52;;
52776;SDS011;38656;54.260;20.822;2022-11-02T05:47:18;49.53;;;32.85;;
52776;SDS011;38656;54.260;20.822;2022-11-02T05:49:44;49.72;;;31.92;;
52776;SDS011;38656;54.260;20.822;2022-11-02T05:52:13;35.45;;;27.42;;
52776;SDS011;38656;54.260;20.822;2022-11-02T05:54:39;47.17;;;30.70;;
52776;SDS011;38656;54.260;20.822;2022-11-02T05:57:05;42.45;;;29.45;;
52776;SDS011;38656;54.260;20.822;2022-11-02T05:59:31;54.08;;;29.13;;
52776;SDS011;38656;54.260;20.822;2022-11-02T06:01:57;43.92;;;30.45;;
52776;SDS011;38656;54.260;20.822;2022-11-02T06:04:23;34.03;;;27.10;;
52776;SDS011;38656;54.260;20.822;2022-11-02T06:06:49;37.30;;;28.35;;
52776;SDS011;38656;54.260;20.822;2022-11-02T06:09:15;48.15;;;30.67;;
52776;SDS011;38656;54.260;20.822;2022-11-02T06:11:41;41.90;;;30.33;;
52776;SDS011;38656;54.260;20.822;2022-11-02T06:14:07;49.45;;;29.42;;
52776;SDS011;38656;54.260;20.822;2022-11-02T06:16:33;36.75;;;29.23;;
52776;SDS011;38656;54.260;20.822;2022-11-02T06:18:59;51.20;;;32.13;;
52776;SDS011;38656;54.260;20.822;2022-11-02T06:21:25;48.88;;;30.60;;
52776;SDS011;38656;54.260;20.822;2022-11-02T06:23:51;54.92;;;32.08;;
52776;SDS011;38656;54.260;20.822;2022-11-02T06:26:17;45.17;;;31.10;;
52776;SDS011;38656;54.260;20.822;2022-11-02T06:28:44;45.38;;;32.70;;
52776;SDS011;38656;54.260;20.822;2022-11-02T06:31:10;53.72;;;30.83;;
52776;SDS011;38656;54.260;20.822;2022-11-02T06:33:36;47.72;;;32.60;;
52776;SDS011;38656;54.260;20.822;2022-11-02T06:36:02;44.40;;;29.13;;
52776;SDS011;38656;54.260;20.822;2022-11-02T06:38:28;48.92;;;32.35;;
52776;SDS011;38656;54.260;20.822;2022-11-02T06:41:00;47.28;;;30.67;;
52776;SDS011;38656;54.260;20.822;2022-11-02T06:43:30;45.60;;;31.83;;
52776;SDS011;38656;54.260;20.822;2022-11-02T06:45:57;41.47;;;31.90;;
52776;SDS011;38656;54.260;20.822;2022-11-02T06:48:23;44.53;;;31.52;;
52776;SDS011;38656;54.260;20.822;2022-11-02T06:50:49;52.25;;;31.88;;
52776;SDS011;38656;54.260;20.822;2022-11-02T06:53:16;44.40;;;30.27;;
52776;SDS011;38656;54.260;20.822;2022-11-02T06:55:42;38.65;;;30.50;;
52776;SDS011;38656;54.260;20.822;2022-11-02T06:58:09;43.47;;;30.15;;
52776;SDS011;38656;54.260;20.822;2022-11-02T07:00:35;41.90;;;31.67;;
52776;SDS011;38656;54.260;20.822;2022-11-02T07:03:02;46.60;;;31.55;;
52776;SDS011;38656;54.260;20.822;2022-11-02T07:05:30;40.25;;;30.33;;
52776;SDS011;38656;54.260;20.822;2022-11-02T07:07:56;39.75;;;28.92;;
52776;SDS011;38656;54.260;20.822;2022-11-02T07:10:22;42.03;;;30.20;;
52776;SDS011;38656;54.260;20.822;2022-11-02T07:12:52;43.25;;;30.52;;
52776;SDS011;38656;54.260;20.822;2022-11-02T07:15:19;53.03;;;31.40;;
52776;SDS011;38656;54.260;20.822;2022-11-02T07:17:45;46.72;;;32.60;;
52776;SDS011;38656;54.260;20.822;2022-11-02T07:20:11;45.42;;;31.90;;
52776;SDS011;38656;54.260;20.822;2022-11-02T07:22:38;40.58;;;30.13;;
52776;SDS011;38656;54.260;20.822;2022-11-02T07:25:04;44.47;;;27.95;;
52776;SDS011;38656;54.260;20.822;2022-11-02T07:27:31;36.22;;;26.65;;
52776;SDS011;38656;54.260;20.822;2022-11-02T07:29:57;32.60;;;24.33;;
52776;SDS011;38656;54.260;20.822;2022-11-02T07:32:23;27.30;;;22.42;;
52776;SDS011;38656;54.260;20.822;2022-11-02T07:34:49;34.42;;;20.85;;
52776;SDS011;38656;54.260;20.822;2022-11-02T07:39:44;24.98;;;18.98;;
52776;SDS011;38656;54.260;20.822;2022-11-02T07:42:10;28.55;;;17.75;;
52776;SDS011;38656;54.260;20.822;2022-11-02T07:44:36;27.67;;;16.63;;
52776;SDS011;38656;54.260;20.822;2022-11-02T07:47:02;30.08;;;16.88;;
52776;SDS011;38656;54.260;20.822;2022-11-02T07:49:28;26.13;;;15.13;;
52776;SDS011;38656;54.260;20.822;2022-11-02T07:51:55;21.77;;;15.23;;
52776;SDS011;38656;54.260;20.822;2022-11-02T07:54:21;24.00;;;15.00;;
52776;SDS011;38656;54.260;20.822;2022-11-02T07:56:47;25.40;;;14.85;;
52776;SDS011;38656;54.260;20.822;2022-11-02T07:59:13;23.23;;;15.05;;
52776;SDS011;38656;54.260;20.822;2022-11-02T08:01:39;30.15;;;12.90;;
52776;SDS011;38656;54.260;20.822;2022-11-02T08:04:05;20.42;;;12.00;;
52776;SDS011;38656;54.260;20.822;2022-11-02T08:06:33;19.15;;;9.65;;
52776;SDS011;38656;54.260;20.822;2022-11-02T08:08:59;23.95;;;10.43;;
52776;SDS011;38656;54.260;20.822;2022-11-02T08:11:26;15.60;;;10.65;;
52776;SDS011;38656;54.260;20.822;2022-11-02T08:13:53;18.08;;;9.70;;
52776;SDS011;38656;54.260;20.822;2022-11-02T08:16:19;21.98;;;8.77;;
52776;SDS011;38656;54.260;20.822;2022-11-02T08:18:45;17.27;;;9.35;;
52776;SDS011;38656;54.260;20.822;2022-11-02T08:21:11;18.75;;;10.15;;
52776;SDS011;38656;54.260;20.822;2022-11-02T08:23:37;31.23;;;19.23;;
52776;SDS011;38656;54.260;20.822;2022-11-02T08:26:03;21.65;;;14.02;;
52776;SDS011;38656;54.260;20.822;2022-11-02T08:28:29;20.60;;;11.48;;
52776;SDS011;38656;54.260;20.822;2022-11-02T08:30:57;19.75;;;10.15;;
52776;SDS011;38656;54.260;20.822;2022-11-02T08:33:23;16.45;;;9.98;;
52776;SDS011;38656;54.260;20.822;2022-11-02T08:35:49;24.95;;;13.30;;
52776;SDS011;38656;54.260;20.822;2022-11-02T08:38:17;30.17;;;10.27;;
52776;SDS011;38656;54.260;20.822;2022-11-02T08:40:46;24.73;;;10.93;;
52776;SDS011;38656;54.260;20.822;2022-11-02T08:43:13;24.23;;;15.25;;
52776;SDS011;38656;54.260;20.822;2022-11-02T08:45:39;24.52;;;10.95;;
52776;SDS011;38656;54.260;20.822;2022-11-02T08:48:06;22.40;;;10.68;;
52776;SDS011;38656;54.260;20.822;2022-11-02T08:50:32;19.63;;;10.07;;
52776;SDS011;38656;54.260;20.822;2022-11-02T08:52:58;17.17;;;9.10;;
52776;SDS011;38656;54.260;20.822;2022-11-02T08:55:24;22.30;;;9.30;;
52776;SDS011;38656;54.260;20.822;2022-11-02T08:57:51;22.02;;;10.20;;
52776;SDS011;38656;54.260;20.822;2022-11-02T09:00:18;22.33;;;11.50;;
52776;SDS011;38656;54.260;20.822;2022-11-02T09:02:56;20.30;;;10.93;;
52776;SDS011;38656;54.260;20.822;2022-11-02T09:05:22;25.17;;;11.98;;
52776;SDS011;38656;54.260;20.822;2022-11-02T09:07:53;22.55;;;11.20;;
52776;SDS011;38656;54.260;20.822;2022-11-02T09:10:19;21.63;;;11.57;;
52776;SDS011;38656;54.260;20.822;2022-11-02T09:12:45;21.25;;;11.73;;
52776;SDS011;38656;54.260;20.822;2022-11-02T09:15:11;22.13;;;11.60;;
52776;SDS011;38656;54.260;20.822;2022-11-02T09:17:37;22.02;;;10.68;;
52776;SDS011;38656;54.260;20.822;2022-11-02T09:20:03;22.45;;;9.80;;
52776;SDS011;38656;54.260;20.822;2022-11-02T09:22:29;21.17;;;9.63;;
52776;SDS011;38656;54.260;20.822;2022-11-02T09:24:55;23.05;;;12.68;;
52776;SDS011;38656;54.260;20.822;2022-11-02T09:27:21;22.73;;;7.40;;
52776;SDS011;38656;54.260;20.822;2022-11-02T09:29:47;14.15;;;7.45;;
52776;SDS011;38656;54.260;20.822;2022-11-02T09:32:13;25.67;;;8.80;;
52776;SDS011;38656;54.260;20.822;2022-11-02T09:34:39;16.95;;;8.82;;
52776;SDS011;38656;54.260;20.822;2022-11-02T09:37:05;17.85;;;8.77;;
52776;SDS011;38656;54.260;20.822;2022-11-02T09:39:31;16.10;;;7.25;;
52776;SDS011;38656;54.260;20.822;2022-11-02T09:42:00;20.95;;;7.63;;
52776;SDS011;38656;54.260;20.822;2022-11-02T09:47:07;18.23;;;9.70;;
52776;SDS011;38656;54.260;20.822;2022-11-02T09:49:34;19.63;;;8.68;;
52776;SDS011;38656;54.260;20.822;2022-11-02T09:52:01;18.73;;;8.52;;
52776;SDS011;38656;54.260;20.822;2022-11-02T09:54:32;17.08;;;7.90;;
52776;SDS011;38656;54.260;20.822;2022-11-02T09:57:03;20.90;;;9.05;;
52776;SDS011;38656;54.260;20.822;2022-11-02T09:59:30;10.82;;;5.93;;
52776;SDS011;38656;54.260;20.822;2022-11-02T10:07:56;21.38;;;7.75;;
52776;SDS011;38656;54.260;20.822;2022-11-02T10:09:55;22.75;;;7.85;;
52776;SDS011;38656;54.260;20.822;2022-11-02T10:12:24;12.38;;;6.15;;
52776;SDS011;38656;54.260;20.822;2022-11-02T10:14:54;13.52;;;6.22;;
52776;SDS011;38656;54.260;20.822;2022-11-02T10:17:25;12.48;;;6.32;;
52776;SDS011;38656;54.260;20.822;2022-11-02T10:19:54;24.52;;;7.22;;
52776;SDS011;38656;54.260;20.822;2022-11-02T10:22:21;11.00;;;5.40;;
52776;SDS011;38656;54.260;20.822;2022-11-02T10:24:47;14.75;;;5.93;;
52776;SDS011;38656;54.260;20.822;2022-11-02T10:27:23;11.88;;;5.82;;
52776;SDS011;38656;54.260;20.822;2022-11-02T10:29:57;13.13;;;5.78;;
52776;SDS011;38656;54.260;20.822;2022-11-02T10:32:24;15.15;;;5.50;;
52776;SDS011;38656;54.260;20.822;2022-11-02T10:34:50;11.95;;;5.50;;
52776;SDS011;38656;54.260;20.822;2022-11-02T10:40:06;15.73;;;6.30;;
52776;SDS011;38656;54.260;20.822;2022-11-02T10:48:02;14.90;;;5.60;;
52776;SDS011;38656;54.260;20.822;2022-11-02T10:53:00;15.02;;;5.50;;
52776;SDS011;38656;54.260;20.822;2022-11-02T10:57:57;14.73;;;5.32;;
52776;SDS011;38656;54.260;20.822;2022-11-02T11:03:09;11.07;;;4.70;;
52776;SDS011;38656;54.260;20.822;2022-11-02T11:11:08;14.35;;;4.97;;
52776;SDS011;38656;54.260;20.822;2022-11-02T11:13:35;13.60;;;4.80;;
52776;SDS011;38656;54.260;20.822;2022-11-02T11:16:01;15.57;;;4.20;;
52776;SDS011;38656;54.260;20.822;2022-11-02T11:18:28;10.70;;;5.05;;
52776;SDS011;38656;54.260;20.822;2022-11-02T11:20:54;11.90;;;4.80;;
52776;SDS011;38656;54.260;20.822;2022-11-02T11:23:21;19.65;;;5.13;;
52776;SDS011;38656;54.260;20.822;2022-11-02T11:31:12;8.65;;;2.85;;
52776;SDS011;38656;54.260;20.822;2022-11-02T11:33:43;11.52;;;4.75;;
52776;SDS011;38656;54.260;20.822;2022-11-02T11:36:09;12.27;;;3.83;;
52776;SDS011;38656;54.260;20.822;2022-11-02T11:38:36;13.65;;;6.47;;
52776;SDS011;38656;54.260;20.822;2022-11-02T11:41:09;13.18;;;5.10;;
52776;SDS011;38656;54.260;20.822;2022-11-02T11:43:36;11.57;;;4.30;;
52776;SDS011;38656;54.260;20.822;2022-11-02T11:46:05;11.32;;;4.03;;
52776;SDS011;38656;54.260;20.822;2022-11-02T11:54:02;11.45;;;4.32;;
52776;SDS011;38656;54.260;20.822;2022-11-02T11:56:28;15.45;;;5.22;;
52776;SDS011;38656;54.260;20.822;2022-11-02T11:58:54;12.77;;;5.10;;
52776;SDS011;38656;54.260;20.822;2022-11-02T12:01:20;13.10;;;4.72;;
52776;SDS011;38656;54.260;20.822;2022-11-02T12:21:46;9.98;;;4.20;;
52776;SDS011;38656;54.260;20.822;2022-11-02T12:26:58;11.30;;;4.22;;
52776;SDS011;38656;54.260;20.822;2022-11-02T12:34:58;14.38;;;5.40;;
52776;SDS011;38656;54.260;20.822;2022-11-02T12:37:38;11.23;;;4.97;;
52776;SDS011;38656;54.260;20.822;2022-11-02T12:43:20;12.13;;;6.38;;
52776;SDS011;38656;54.260;20.822;2022-11-02T12:51:01;14.18;;;5.80;;
52776;SDS011;38656;54.260;20.822;2022-11-02T12:56:02;17.05;;;5.75;;
52776;SDS011;38656;54.260;20.822;2022-11-02T12:58:31;17.98;;;5.60;;
52776;SDS011;38656;54.260;20.822;2022-11-02T13:01:05;10.55;;;5.13;;
52776;SDS011;38656;54.260;20.822;2022-11-02T13:03:41;14.13;;;4.93;;
52776;SDS011;38656;54.260;20.822;2022-11-02T13:06:10;10.95;;;5.20;;
52776;SDS011;38656;54.260;20.822;2022-11-02T13:08:54;17.02;;;6.50;;
52776;SDS011;38656;54.260;20.822;2022-11-02T13:11:23;14.23;;;5.65;;
52776;SDS011;38656;54.260;20.822;2022-11-02T13:13:54;16.00;;;6.00;;
52776;SDS011;38656;54.260;20.822;2022-11-02T13:19:02;20.63;;;8.30;;
52776;SDS011;38656;54.260;20.822;2022-11-02T13:21:30;15.27;;;7.70;;
52776;SDS011;38656;54.260;20.822;2022-11-02T13:23:58;17.75;;;7.13;;
52776;SDS011;38656;54.260;20.822;2022-11-02T13:28:52;19.40;;;9.07;;
52776;SDS011;38656;54.260;20.822;2022-11-02T13:31:22;17.05;;;9.32;;
52776;SDS011;38656;54.260;20.822;2022-11-02T13:33:51;20.10;;;10.38;;
52776;SDS011;38656;54.260;20.822;2022-11-02T13:36:18;16.83;;;8.65;;
52776;SDS011;38656;54.260;20.822;2022-11-02T13:38:48;19.35;;;7.00;;
52776;SDS011;38656;54.260;20.822;2022-11-02T13:51:47;14.82;;;6.03;;
52776;SDS011;38656;54.260;20.822;2022-11-02T13:56:43;14.05;;;6.75;;
52776;SDS011;38656;54.260;20.822;2022-11-02T13:59:19;18.20;;;6.35;;
52776;SDS011;38656;54.260;20.822;2022-11-02T14:01:46;9.48;;;5.82;;
52776;SDS011;38656;54.260;20.822;2022-11-02T14:04:13;16.88;;;6.63;;
52776;SDS011;38656;54.260;20.822;2022-11-02T14:06:47;18.38;;;6.03;;
52776;SDS011;38656;54.260;20.822;2022-11-02T14:09:20;15.85;;;7.07;;
52776;SDS011;38656;54.260;20.822;2022-11-02T14:11:48;18.93;;;8.27;;
52776;SDS011;38656;54.260;20.822;2022-11-02T14:14:15;14.05;;;7.95;;
52776;SDS011;38656;54.260;20.822;2022-11-02T14:21:42;13.18;;;6.35;;
52776;SDS011;38656;54.260;20.822;2022-11-02T14:26:54;15.85;;;7.32;;
52776;SDS011;38656;54.260;20.822;2022-11-02T14:30:20;15.27;;;8.80;;
52776;SDS011;38656;54.260;20.822;2022-11-02T14:34:47;21.98;;;10.73;;
52776;SDS011;38656;54.260;20.822;2022-11-02T14:40:04;20.02;;;11.32;;
52776;SDS011;38656;54.260;20.822;2022-11-02T14:52:38;23.38;;;14.35;;
52776;SDS011;38656;54.260;20.822;2022-11-02T14:57:41;25.73;;;14.45;;
52776;SDS011;38656;54.260;20.822;2022-11-02T15:00:24;31.15;;;19.83;;
52776;SDS011;38656;54.260;20.822;2022-11-02T15:02:51;25.17;;;17.48;;
52776;SDS011;38656;54.260;20.822;2022-11-02T15:05:22;29.92;;;16.85;;
52776;SDS011;38656;54.260;20.822;2022-11-02T15:07:55;33.13;;;18.00;;
52776;SDS011;38656;54.260;20.822;2022-11-02T15:15:40;23.65;;;16.92;;
52776;SDS011;38656;54.260;20.822;2022-11-02T15:18:39;24.42;;;17.25;;
52776;SDS011;38656;54.260;20.822;2022-11-02T15:21:31;36.47;;;22.50;;
52776;SDS011;38656;54.260;20.822;2022-11-02T15:28:59;32.05;;;22.88;;
52776;SDS011;38656;54.260;20.822;2022-11-02T15:31:26;35.10;;;19.92;;
52776;SDS011;38656;54.260;20.822;2022-11-02T15:34:01;38.20;;;21.17;;
52776;SDS011;38656;54.260;20.822;2022-11-02T15:36:29;26.92;;;22.42;;
52776;SDS011;38656;54.260;20.822;2022-11-02T15:38:57;37.88;;;25.38;;
52776;SDS011;38656;54.260;20.822;2022-11-02T15:49:19;38.22;;;28.80;;
52776;SDS011;38656;54.260;20.822;2022-11-02T15:54:22;36.72;;;29.85;;
52776;SDS011;38656;54.260;20.822;2022-11-02T16:04:49;79.15;;;59.15;;
52776;SDS011;38656;54.260;20.822;2022-11-02T16:07:15;52.67;;;46.97;;
52776;SDS011;38656;54.260;20.822;2022-11-02T16:09:43;38.70;;;32.00;;
52776;SDS011;38656;54.260;20.822;2022-11-02T16:17:27;45.33;;;27.15;;
52776;SDS011;38656;54.260;20.822;2022-11-02T16:22:39;236.48;;;141.95;;
52776;SDS011;38656;54.260;20.822;2022-11-02T16:25:07;173.75;;;128.93;;
52776;SDS011;38656;54.260;20.822;2022-11-02T16:27:37;62.90;;;56.55;;
52776;SDS011;38656;54.260;20.822;2022-11-02T16:30:04;37.15;;;29.70;;
52776;SDS011;38656;54.260;20.822;2022-11-02T16:32:30;53.17;;;38.20;;
52776;SDS011;38656;54.260;20.822;2022-11-02T16:34:57;48.85;;;43.47;;
52776;SDS011;38656;54.260;20.822;2022-11-02T16:37:25;136.73;;;94.53;;
52776;SDS011;38656;54.260;20.822;2022-11-02T16:39:51;192.70;;;127.82;;
52776;SDS011;38656;54.260;20.822;2022-11-02T16:42:20;38.25;;;24.88;;
52776;SDS011;38656;54.260;20.822;2022-11-02T16:44:59;40.85;;;34.53;;
52776;SDS011;38656;54.260;20.822;2022-11-02T16:47:38;38.63;;;29.20;;
52776;SDS011;38656;54.260;20.822;2022-11-02T16:50:16;32.42;;;27.27;;
52776;SDS011;38656;54.260;20.822;2022-11-02T16:52:45;34.78;;;27.90;;
52776;SDS011;38656;54.260;20.822;2022-11-02T16:58:02;32.70;;;27.48;;
52776;SDS011;38656;54.260;20.822;2022-11-02T17:00:29;34.05;;;27.75;;
52776;SDS011;38656;54.260;20.822;2022-11-02T17:02:55;39.45;;;35.25;;
52776;SDS011;38656;54.260;20.822;2022-11-02T17:05:22;28.45;;;25.60;;
52776;SDS011;38656;54.260;20.822;2022-11-02T17:08:02;30.05;;;23.73;;
52776;SDS011;38656;54.260;20.822;2022-11-02T17:10:29;40.50;;;36.00;;
52776;SDS011;38656;54.260;20.822;2022-11-02T17:12:56;198.68;;;85.22;;
52776;SDS011;38656;54.260;20.822;2022-11-02T17:15:26;407.67;;;162.40;;
52776;SDS011;38656;54.260;20.822;2022-11-02T17:20:34;33.72;;;29.85;;
52776;SDS011;38656;54.260;20.822;2022-11-02T17:23:02;33.80;;;30.15;;
52776;SDS011;38656;54.260;20.822;2022-11-02T17:25:29;45.20;;;38.80;;
52776;SDS011;38656;54.260;20.822;2022-11-02T17:27:57;65.97;;;58.88;;
52776;SDS011;38656;54.260;20.822;2022-11-02T17:32:52;41.50;;;37.28;;
52776;SDS011;38656;54.260;20.822;2022-11-02T17:35:18;54.55;;;48.70;;
52776;SDS011;38656;54.260;20.822;2022-11-02T17:37:44;40.15;;;36.05;;
52776;SDS011;38656;54.260;20.822;2022-11-02T17:40:11;35.90;;;32.20;;